Time;durP1;ratioP1;P1;durP2;ratioP2;P2;SDS_P1;SDS_P2;PMS_P1;PMS_P2;Temp;Humidity;BMP_temperature;BMP_pressure;BME280_temperature;BME280_humidity;BME280_pressure;Samples;Min_cycle;Max_cycle;Signal;HPM_P1;HPM_P2
2022/04/15 00:01:11;;;;;;;5.23;2.83;;;;;;;;;;4505849;28;20026;-63
2022/04/15 00:03:21;;;;;;;3.93;2.70;;;;;;;;;;4490028;28;20281;-63
2022/04/15 00:05:52;;;;;;;4.50;2.73;;;;;;;;;;4510863;28;33027;-63
2022/04/15 00:08:11;;;;;;;5.00;2.90;;;;;;;;;;4494904;28;20045;-63
2022/04/15 00:10:22;;;;;;;5.25;2.70;;;;;;;;;;4493879;28;20038;-63
2022/04/15 00:12:34;;;;;;;4.13;2.97;;;;;;;;;;4509830;28;20293;-63
2022/04/15 00:14:45;;;;;;;4.15;2.85;;;;;;;;;;4513123;28;20029;-63
2022/04/15 00:16:55;;;;;;;4.65;3.20;;;;;;;;;;4512646;28;20830;-63
2022/04/15 00:19:05;;;;;;;5.83;2.77;;;;;;;;;;4514008;28;20022;-63
2022/04/15 00:21:16;;;;;;;4.67;2.90;;;;;;;;;;4512387;28;23489;-63
2022/04/15 00:23:26;;;;;;;7.00;3.23;;;;;;;;;;4512580;28;20573;-63
2022/04/15 00:25:37;;;;;;;4.73;2.83;;;;;;;;;;4514555;28;20341;-63
2022/04/15 00:27:48;;;;;;;4.28;3.05;;;;;;;;;;4512310;28;20034;-63
2022/04/15 00:29:58;;;;;;;5.17;3.00;;;;;;;;;;4513200;28;20033;-63
2022/04/15 00:32:09;;;;;;;4.90;2.97;;;;;;;;;;4510840;28;32083;-63
2022/04/15 00:34:19;;;;;;;4.50;2.90;;;;;;;;;;4513743;28;20034;-63
2022/04/15 00:36:29;;;;;;;4.83;2.93;;;;;;;;;;4512820;28;20048;-63
2022/04/15 00:38:40;;;;;;;4.53;3.20;;;;;;;;;;4512958;28;20045;-63
2022/04/15 00:40:51;;;;;;;4.17;2.87;;;;;;;;;;4512539;28;20128;-63
2022/04/15 00:43:01;;;;;;;4.50;3.30;;;;;;;;;;4508099;28;20038;-63
2022/04/15 00:45:12;;;;;;;4.30;3.10;;;;;;;;;;4510296;28;20473;-63
2022/04/15 00:47:30;;;;;;;5.20;3.37;;;;;;;;;;4481121;28;20189;-63
2022/04/15 00:49:41;;;;;;;4.88;3.20;;;;;;;;;;4480842;28;20045;-63
2022/04/15 00:51:52;;;;;;;4.63;3.00;;;;;;;;;;4484442;28;20386;-63
2022/04/15 00:54:03;;;;;;;5.65;3.72;;;;;;;;;;4493993;28;20117;-63
2022/04/15 00:56:14;;;;;;;5.57;3.20;;;;;;;;;;4494443;28;20047;-63
2022/04/15 00:58:25;;;;;;;5.43;3.47;;;;;;;;;;4493455;28;20425;-63
2022/04/15 01:00:37;;;;;;;6.13;3.40;;;;;;;;;;4511767;28;20065;-63
2022/04/15 01:02:47;;;;;;;5.05;3.30;;;;;;;;;;4512730;28;20034;-63
2022/04/15 01:04:58;;;;;;;5.00;3.40;;;;;;;;;;4493389;28;20041;-63
2022/04/15 01:07:09;;;;;;;4.60;3.23;;;;;;;;;;4492681;28;20034;-64
2022/04/15 01:09:20;;;;;;;5.13;2.92;;;;;;;;;;4497908;28;20449;-63
2022/04/15 01:11:33;;;;;;;5.07;3.65;;;;;;;;;;4493783;28;20193;-63
2022/04/15 01:13:45;;;;;;;6.28;3.65;;;;;;;;;;4491324;28;20089;-63
2022/04/15 01:15:56;;;;;;;5.97;3.65;;;;;;;;;;4507591;28;20030;-63
2022/04/15 01:18:06;;;;;;;3.80;3.30;;;;;;;;;;4509656;28;20046;-63
2022/04/15 01:20:17;;;;;;;4.97;3.40;;;;;;;;;;4510444;28;20061;-63
2022/04/15 01:22:37;;;;;;;5.07;3.25;;;;;;;;;;4493487;28;20030;-63
2022/04/15 01:24:48;;;;;;;5.80;3.90;;;;;;;;;;4493927;28;20092;-63
2022/04/15 01:26:58;;;;;;;5.67;3.60;;;;;;;;;;4511874;28;20092;-63
2022/04/15 01:29:08;;;;;;;6.17;3.73;;;;;;;;;;4496131;28;20058;-63
2022/04/15 01:31:19;;;;;;;5.77;3.77;;;;;;;;;;4511535;28;20823;-64
2022/04/15 01:33:29;;;;;;;5.53;3.63;;;;;;;;;;4512416;28;20038;-64
2022/04/15 01:35:40;;;;;;;6.27;3.63;;;;;;;;;;4492544;28;20100;-63
2022/04/15 01:37:50;;;;;;;5.50;3.47;;;;;;;;;;4512457;28;20041;-63
2022/04/15 01:40:02;;;;;;;6.03;3.53;;;;;;;;;;4492217;28;23195;-63
2022/04/15 01:42:13;;;;;;;4.88;3.30;;;;;;;;;;4492926;28;20032;-63
2022/04/15 01:44:24;;;;;;;5.00;3.65;;;;;;;;;;4512849;28;20034;-63
2022/04/15 01:46:34;;;;;;;5.27;3.10;;;;;;;;;;4512169;28;20034;-63
2022/04/15 01:48:45;;;;;;;4.43;3.03;;;;;;;;;;4508866;28;20475;-63
2022/04/15 01:50:55;;;;;;;4.70;3.40;;;;;;;;;;4492187;28;20384;-63
2022/04/15 01:53:06;;;;;;;4.43;3.10;;;;;;;;;;4512857;28;20034;-63
2022/04/15 01:55:16;;;;;;;4.43;3.00;;;;;;;;;;4498974;28;20018;-63
2022/04/15 01:57:26;;;;;;;5.30;3.07;;;;;;;;;;4512813;28;20052;-63
2022/04/15 01:59:37;;;;;;;5.23;3.20;;;;;;;;;;4511901;28;20135;-63
2022/04/15 02:01:48;;;;;;;5.45;3.30;;;;;;;;;;4510440;28;20704;-63
2022/04/15 02:03:59;;;;;;;4.15;3.03;;;;;;;;;;4502394;28;20038;-63
2022/04/15 02:06:09;;;;;;;4.10;3.13;;;;;;;;;;4513624;28;20933;-63
2022/04/15 02:08:20;;;;;;;6.17;3.10;;;;;;;;;;4512604;28;20099;-63
2022/04/15 02:10:31;;;;;;;4.60;3.03;;;;;;;;;;4510181;28;28109;-63
2022/04/15 02:12:41;;;;;;;4.97;3.20;;;;;;;;;;4492833;28;20040;-63
2022/04/15 02:14:51;;;;;;;4.77;3.27;;;;;;;;;;4512727;28;20283;-63
2022/04/15 02:17:02;;;;;;;4.80;3.53;;;;;;;;;;4510986;28;20331;-63
2022/04/15 02:19:12;;;;;;;4.40;3.20;;;;;;;;;;4511008;28;20218;-63
2022/04/15 02:21:23;;;;;;;5.27;3.20;;;;;;;;;;4510693;28;42349;-63
2022/04/15 02:23:33;;;;;;;4.50;3.03;;;;;;;;;;4511026;28;20076;-63
2022/04/15 02:25:44;;;;;;;4.67;3.00;;;;;;;;;;4511874;28;20513;-63
2022/04/15 02:27:54;;;;;;;4.60;2.87;;;;;;;;;;4510005;28;20034;-63
2022/04/15 02:30:05;;;;;;;5.33;3.23;;;;;;;;;;4511582;28;20034;-63
2022/04/15 02:32:15;;;;;;;4.33;2.87;;;;;;;;;;4510053;28;20037;-63
2022/04/15 02:34:26;;;;;;;4.07;2.93;;;;;;;;;;4511309;28;20037;-63
2022/04/15 02:36:36;;;;;;;3.97;2.90;;;;;;;;;;4489509;28;20034;-63
2022/04/15 02:38:46;;;;;;;4.30;2.63;;;;;;;;;;4509805;28;20049;-63
2022/04/15 02:40:57;;;;;;;4.13;3.07;;;;;;;;;;4509668;28;20041;-63
2022/04/15 02:43:09;;;;;;;6.72;3.42;;;;;;;;;;4499611;28;20843;-63
2022/04/15 02:45:21;;;;;;;5.35;3.20;;;;;;;;;;4491565;28;20040;-64
2022/04/15 02:47:32;;;;;;;3.92;3.10;;;;;;;;;;4508923;28;20030;-63
2022/04/15 02:49:42;;;;;;;4.10;2.90;;;;;;;;;;4508119;28;20068;-63
2022/04/15 02:51:53;;;;;;;4.53;3.00;;;;;;;;;;4509431;28;20041;-63
2022/04/15 02:54:04;;;;;;;3.75;2.63;;;;;;;;;;4491542;28;20032;-63
2022/04/15 02:56:14;;;;;;;4.73;3.13;;;;;;;;;;4500241;28;26125;-63
2022/04/15 02:58:24;;;;;;;4.40;3.17;;;;;;;;;;4509750;28;23614;-63
2022/04/15 03:00:35;;;;;;;5.27;3.43;;;;;;;;;;4491312;28;20077;-63
2022/04/15 03:02:46;;;;;;;5.13;3.07;;;;;;;;;;4510551;28;20033;-63
2022/04/15 03:04:56;;;;;;;4.57;3.20;;;;;;;;;;4507250;28;20041;-63
2022/04/15 03:07:07;;;;;;;4.70;3.30;;;;;;;;;;4508412;28;20042;-63
2022/04/15 03:09:17;;;;;;;3.90;2.90;;;;;;;;;;4508668;28;20056;-63
2022/04/15 03:11:27;;;;;;;5.13;3.23;;;;;;;;;;4510329;28;20030;-63
2022/04/15 03:13:38;;;;;;;4.80;3.03;;;;;;;;;;4510914;28;28904;-63
2022/04/15 03:15:48;;;;;;;6.07;3.23;;;;;;;;;;4509142;28;20061;-63
2022/04/15 03:17:58;;;;;;;4.17;3.00;;;;;;;;;;4509730;28;20106;-63
2022/04/15 03:20:09;;;;;;;6.40;3.40;;;;;;;;;;4510076;28;32681;-63
2022/04/15 03:22:20;;;;;;;4.00;2.80;;;;;;;;;;4510564;28;20034;-63
2022/04/15 03:24:31;;;;;;;6.33;3.63;;;;;;;;;;4508640;28;20027;-63
2022/04/15 03:26:41;;;;;;;4.97;3.20;;;;;;;;;;4509970;28;20128;-63
2022/04/15 03:28:52;;;;;;;5.07;3.05;;;;;;;;;;4463112;28;1093959;-63
2022/04/15 03:31:02;;;;;;;5.13;3.00;;;;;;;;;;4491244;28;20037;-63
2022/04/15 03:33:13;;;;;;;4.23;2.60;;;;;;;;;;4510637;28;24567;-63
2022/04/15 03:35:23;;;;;;;4.13;2.63;;;;;;;;;;4510465;28;23316;-63
2022/04/15 03:37:34;;;;;;;4.53;2.80;;;;;;;;;;4509120;28;32768;-63
2022/04/15 03:39:44;;;;;;;4.17;2.70;;;;;;;;;;4499777;28;20038;-63
2022/04/15 03:41:54;;;;;;;3.60;2.50;;;;;;;;;;4490431;28;20033;-63
2022/04/15 03:44:05;;;;;;;3.77;2.37;;;;;;;;;;4510678;28;20718;-63
2022/04/15 03:46:15;;;;;;;3.40;2.17;;;;;;;;;;4510060;28;20048;-63
2022/04/15 03:48:26;;;;;;;3.07;2.20;;;;;;;;;;4491928;28;20109;-63
2022/04/15 03:50:37;;;;;;;2.80;2.10;;;;;;;;;;4508602;28;20093;-63
2022/04/15 03:52:48;;;;;;;4.03;2.38;;;;;;;;;;4510414;28;20113;-63
2022/04/15 03:54:59;;;;;;;3.42;2.30;;;;;;;;;;4491436;28;20106;-63
2022/04/15 03:57:09;;;;;;;3.37;2.20;;;;;;;;;;4509789;28;20036;-63
2022/04/15 03:59:20;;;;;;;3.87;2.70;;;;;;;;;;4510269;28;32840;-63
2022/04/15 04:01:30;;;;;;;3.93;2.57;;;;;;;;;;4511277;28;20470;-62
2022/04/15 04:03:41;;;;;;;3.43;2.40;;;;;;;;;;4492703;28;20035;-63
2022/04/15 04:05:51;;;;;;;4.70;2.63;;;;;;;;;;4510231;28;20487;-63
2022/04/15 04:08:02;;;;;;;4.67;2.57;;;;;;;;;;4510962;28;20034;-63
2022/04/15 04:10:13;;;;;;;3.73;2.30;;;;;;;;;;4511106;28;20475;-63
2022/04/15 04:12:24;;;;;;;3.85;2.33;;;;;;;;;;4490697;28;20539;-63
2022/04/15 04:14:34;;;;;;;3.63;2.50;;;;;;;;;;4510972;28;20042;-63
2022/04/15 04:16:45;;;;;;;3.30;2.13;;;;;;;;;;4509055;28;20152;-63
2022/04/15 04:18:55;;;;;;;4.20;2.23;;;;;;;;;;4510087;28;20050;-63
2022/04/15 04:21:07;;;;;;;3.53;2.13;;;;;;;;;;4491698;28;20116;-63
2022/04/15 04:23:17;;;;;;;3.38;2.45;;;;;;;;;;4494729;28;20031;-63
2022/04/15 04:25:27;;;;;;;4.07;2.13;;;;;;;;;;4491854;28;20030;-63
2022/04/15 04:27:38;;;;;;;4.60;2.40;;;;;;;;;;4507534;28;27468;-63
2022/04/15 04:29:49;;;;;;;3.90;2.30;;;;;;;;;;4507107;28;20451;-63
2022/04/15 04:31:59;;;;;;;3.30;2.23;;;;;;;;;;4508986;28;20397;-63
2022/04/15 04:34:10;;;;;;;3.60;2.30;;;;;;;;;;4511290;28;20517;-63
2022/04/15 04:36:20;;;;;;;2.37;1.83;;;;;;;;;;4508422;28;21864;-63
2022/04/15 04:38:31;;;;;;;3.73;2.20;;;;;;;;;;4509798;28;20129;-63
2022/04/15 04:40:42;;;;;;;3.03;2.05;;;;;;;;;;4509955;28;20081;-63
2022/04/15 04:42:53;;;;;;;2.45;1.95;;;;;;;;;;4492189;28;20121;-65
2022/04/15 04:45:05;;;;;;;4.32;2.13;;;;;;;;;;4491464;28;20133;-63
2022/04/15 04:47:16;;;;;;;3.47;2.08;;;;;;;;;;4479693;28;20031;-64
2022/04/15 04:49:26;;;;;;;3.73;2.23;;;;;;;;;;4478897;28;20035;-63
2022/04/15 04:51:37;;;;;;;2.30;2.00;;;;;;;;;;4509134;28;20049;-63
2022/04/15 04:53:47;;;;;;;3.97;2.27;;;;;;;;;;4507957;28;20382;-63
2022/04/15 04:55:58;;;;;;;3.10;2.17;;;;;;;;;;4488997;28;20039;-63
2022/04/15 04:58:08;;;;;;;3.13;2.10;;;;;;;;;;4505620;28;20073;-63
2022/04/15 05:00:19;;;;;;;4.23;2.00;;;;;;;;;;4509405;28;20127;-63
2022/04/15 05:02:29;;;;;;;2.93;1.90;;;;;;;;;;4511507;28;20126;-63
2022/04/15 05:04:40;;;;;;;2.33;1.70;;;;;;;;;;4513650;28;20043;-63
2022/04/15 05:06:51;;;;;;;3.45;1.90;;;;;;;;;;4512332;28;20030;-63
2022/04/15 05:09:02;;;;;;;2.75;1.98;;;;;;;;;;4511241;28;20041;-63
2022/04/15 05:11:12;;;;;;;4.37;2.03;;;;;;;;;;4492549;28;28163;-63
2022/04/15 05:13:23;;;;;;;3.00;1.60;;;;;;;;;;4511395;28;37512;-63
2022/04/15 05:15:33;;;;;;;2.87;2.00;;;;;;;;;;4510692;28;43184;-63
2022/04/15 05:17:43;;;;;;;2.20;1.70;;;;;;;;;;4510903;28;20046;-63
2022/04/15 05:19:54;;;;;;;2.27;1.67;;;;;;;;;;4510486;28;20948;-63
2022/04/15 05:22:04;;;;;;;3.73;1.80;;;;;;;;;;4492844;28;20092;-64
2022/04/15 05:24:15;;;;;;;3.47;1.90;;;;;;;;;;4510039;28;20573;-64
2022/04/15 05:26:25;;;;;;;3.03;1.73;;;;;;;;;;4512084;28;25126;-64
2022/04/15 05:28:36;;;;;;;2.90;1.50;;;;;;;;;;4494093;28;20042;-64
2022/04/15 05:30:46;;;;;;;4.73;1.70;;;;;;;;;;4512483;28;20390;-63
2022/04/15 05:32:56;;;;;;;2.73;1.57;;;;;;;;;;4500914;28;20033;-63
2022/04/15 05:35:07;;;;;;;2.97;1.60;;;;;;;;;;4512910;28;20072;-63
2022/04/15 05:37:18;;;;;;;3.08;1.98;;;;;;;;;;4511032;28;20040;-63
2022/04/15 05:39:28;;;;;;;4.00;1.90;;;;;;;;;;4511773;28;20718;-63
2022/04/15 05:41:38;;;;;;;2.37;1.57;;;;;;;;;;4493519;28;20124;-64
2022/04/15 05:43:49;;;;;;;3.00;1.90;;;;;;;;;;4510219;28;23879;-64
2022/04/15 05:45:59;;;;;;;2.50;1.70;;;;;;;;;;4509400;28;35449;-63
2022/04/15 05:48:10;;;;;;;3.53;1.83;;;;;;;;;;4511173;28;20451;-63
2022/04/15 05:50:20;;;;;;;3.83;1.90;;;;;;;;;;4510746;28;20805;-63
2022/04/15 05:52:31;;;;;;;2.50;1.80;;;;;;;;;;4511043;28;20038;-64
2022/04/15 05:54:41;;;;;;;4.50;2.20;;;;;;;;;;4492354;28;30319;-63
2022/04/15 05:56:51;;;;;;;1.90;1.80;;;;;;;;;;4511381;28;20069;-63
2022/04/15 05:59:03;;;;;;;3.20;2.00;;;;;;;;;;4509015;28;32226;-63
2022/04/15 06:01:13;;;;;;;2.53;1.63;;;;;;;;;;4510020;28;20426;-64
2022/04/15 06:03:23;;;;;;;3.93;1.80;;;;;;;;;;4509986;28;20032;-64
2022/04/15 06:05:34;;;;;;;3.23;2.00;;;;;;;;;;4512036;28;20075;-63
2022/04/15 06:07:44;;;;;;;2.57;1.57;;;;;;;;;;4511068;28;20029;-63
2022/04/15 06:09:55;;;;;;;3.10;1.73;;;;;;;;;;4510422;28;20041;-64
2022/04/15 06:12:07;;;;;;;2.27;1.60;;;;;;;;;;4490624;28;20034;-63
2022/04/15 06:14:18;;;;;;;2.88;1.90;;;;;;;;;;4509119;28;20726;-63
2022/04/15 06:16:32;;;;;;;2.23;1.67;;;;;;;;;;4492629;28;20038;-63
2022/04/15 06:18:42;;;;;;;2.95;1.75;;;;;;;;;;4509732;28;20037;-63
2022/04/15 06:20:53;;;;;;;2.13;1.80;;;;;;;;;;4511704;28;20466;-63
2022/04/15 06:23:03;;;;;;;2.90;1.70;;;;;;;;;;4512160;28;20433;-63
2022/04/15 06:25:15;;;;;;;2.77;1.83;;;;;;;;;;4512280;28;20046;-63
2022/04/15 06:27:25;;;;;;;2.78;1.63;;;;;;;;;;4479093;28;20133;-64
2022/04/15 06:29:36;;;;;;;3.10;1.67;;;;;;;;;;4495272;28;20042;-63
2022/04/15 06:31:47;;;;;;;3.20;1.80;;;;;;;;;;4511338;28;20161;-64
2022/04/15 06:33:57;;;;;;;3.03;1.77;;;;;;;;;;4509541;28;20037;-64
2022/04/15 06:36:08;;;;;;;2.37;1.60;;;;;;;;;;4496654;28;20041;-63
2022/04/15 06:38:18;;;;;;;2.10;1.60;;;;;;;;;;4510941;28;20052;-63
2022/04/15 06:40:29;;;;;;;2.60;1.70;;;;;;;;;;4511077;28;20034;-63
2022/04/15 06:42:39;;;;;;;3.00;1.63;;;;;;;;;;4510877;28;23806;-63
2022/04/15 06:44:50;;;;;;;2.90;1.70;;;;;;;;;;4490131;28;20034;-63
2022/04/15 06:47:01;;;;;;;2.25;1.63;;;;;;;;;;4491246;28;20253;-63
2022/04/15 06:49:11;;;;;;;2.43;1.70;;;;;;;;;;4508954;28;20048;-63
2022/04/15 06:51:22;;;;;;;2.40;1.50;;;;;;;;;;4489989;28;20078;-63
2022/04/15 06:53:32;;;;;;;3.07;1.80;;;;;;;;;;4510905;28;20525;-63
2022/04/15 06:55:43;;;;;;;3.77;1.87;;;;;;;;;;4509440;28;20120;-63
2022/04/15 06:57:53;;;;;;;2.63;1.77;;;;;;;;;;4510038;28;20057;-63
2022/04/15 07:00:05;;;;;;;1.93;1.67;;;;;;;;;;4509222;28;20033;-63
2022/04/15 07:02:15;;;;;;;;;;;;;;;;;;4500019;28;20786;-63
2022/04/15 07:04:27;;;;;;;2.42;2.08;;;;;;;;;;4508692;28;20229;-63
2022/04/15 07:06:37;;;;;;;2.45;2.00;;;;;;;;;;4510377;28;20072;-63
2022/04/15 07:08:47;;;;;;;2.53;1.60;;;;;;;;;;4508642;28;20549;-63
2022/04/15 07:10:58;;;;;;;3.53;1.77;;;;;;;;;;4511109;28;20042;-63
2022/04/15 07:13:09;;;;;;;3.47;2.03;;;;;;;;;;4511500;28;20060;-63
2022/04/15 07:15:23;;;;;;;2.30;1.75;;;;;;;;;;4511032;28;20037;-63
2022/04/15 07:17:34;;;;;;;2.67;1.92;;;;;;;;;;4509269;28;20193;-63
2022/04/15 07:19:44;;;;;;;2.97;2.03;;;;;;;;;;4510629;28;20033;-63
2022/04/15 07:21:54;;;;;;;3.43;1.87;;;;;;;;;;4508695;28;28343;-63
2022/04/15 07:24:05;;;;;;;3.13;2.10;;;;;;;;;;4507569;28;30052;-63
2022/04/15 07:26:16;;;;;;;2.20;1.77;;;;;;;;;;4508208;28;20117;-63
2022/04/15 07:28:26;;;;;;;3.63;2.10;;;;;;;;;;4509361;28;20498;-63
2022/04/15 07:30:37;;;;;;;3.50;2.10;;;;;;;;;;4509541;28;20292;-63
2022/04/15 07:32:47;;;;;;;2.88;1.92;;;;;;;;;;4493744;28;20044;-63
2022/04/15 07:34:59;;;;;;;2.07;1.70;;;;;;;;;;4510316;28;20036;-63
2022/04/15 07:37:10;;;;;;;2.70;1.80;;;;;;;;;;4508806;28;20157;-63
2022/04/15 07:39:21;;;;;;;2.80;2.00;;;;;;;;;;4508884;28;20077;-63
2022/04/15 07:41:33;;;;;;;2.85;1.95;;;;;;;;;;4510239;28;20133;-63
2022/04/15 07:43:44;;;;;;;3.28;1.98;;;;;;;;;;4500431;28;20034;-63
2022/04/15 07:45:55;;;;;;;3.67;2.53;;;;;;;;;;4498906;28;20044;-63
2022/04/15 07:48:06;;;;;;;2.77;2.07;;;;;;;;;;4509122;28;20033;-63
2022/04/15 07:50:22;;;;;;;3.10;2.03;;;;;;;;;;4510939;28;20069;-63
2022/04/15 07:52:33;;;;;;;2.90;2.10;;;;;;;;;;4508275;28;20038;-63
2022/04/15 07:54:43;;;;;;;3.20;2.17;;;;;;;;;;4510553;28;20037;-63
2022/04/15 07:56:54;;;;;;;2.73;2.00;;;;;;;;;;4510720;28;20324;-63
2022/04/15 07:59:04;;;;;;;2.30;2.00;;;;;;;;;;4508882;28;20470;-63
2022/04/15 08:01:15;;;;;;;2.83;2.17;;;;;;;;;;4490152;28;20045;-63
2022/04/15 08:03:29;;;;;;;3.20;1.90;;;;;;;;;;4508541;28;20038;-63
2022/04/15 08:05:39;;;;;;;3.65;2.33;;;;;;;;;;4509945;28;20042;-63
2022/04/15 08:07:50;;;;;;;2.53;2.03;;;;;;;;;;4510512;28;20052;-63
2022/04/15 08:10:02;;;;;;;2.55;2.00;;;;;;;;;;4508012;28;20041;-63
2022/04/15 08:12:12;;;;;;;2.63;2.03;;;;;;;;;;4509496;28;20494;-63
2022/04/15 08:14:23;;;;;;;3.10;2.13;;;;;;;;;;4510653;28;20034;-63
2022/04/15 08:16:33;;;;;;;2.33;1.80;;;;;;;;;;4508882;28;20537;-63
2022/04/15 08:18:43;;;;;;;2.43;1.80;;;;;;;;;;4509897;28;20049;-63
2022/04/15 08:20:56;;;;;;;2.23;1.90;;;;;;;;;;4491102;28;20512;-67
2022/04/15 08:23:09;;;;;;;2.53;2.00;;;;;;;;;;4508639;28;20046;-69
2022/04/15 08:25:19;;;;;;;3.53;1.88;;;;;;;;;;4509750;28;20118;-72
2022/04/15 08:27:29;;;;;;;3.90;2.10;;;;;;;;;;4509062;28;20046;-72
2022/04/15 08:29:40;;;;;;;2.90;2.10;;;;;;;;;;4509480;28;20038;-69
2022/04/15 08:31:50;;;;;;;2.73;2.23;;;;;;;;;;4507827;28;20040;-66
2022/04/15 08:34:02;;;;;;;2.70;2.00;;;;;;;;;;4508535;28;20852;-69
2022/04/15 08:36:12;;;;;;;3.17;2.10;;;;;;;;;;4490983;28;20401;-65
2022/04/15 08:38:23;;;;;;;3.10;1.90;;;;;;;;;;4512065;28;20041;-68
2022/04/15 08:40:35;;;;;;;2.30;1.83;;;;;;;;;;4512608;28;20409;-63
2022/04/15 08:42:46;;;;;;;2.80;1.85;;;;;;;;;;4512625;28;20037;-64
2022/04/15 08:44:56;;;;;;;4.10;2.20;;;;;;;;;;4481476;28;37948;-67
2022/04/15 08:47:07;;;;;;;2.93;1.80;;;;;;;;;;4510151;28;20033;-66
2022/04/15 08:49:19;;;;;;;2.77;1.77;;;;;;;;;;4497766;28;20058;-66
2022/04/15 08:51:30;;;;;;;;;;;;;;;;;;4480623;28;20988;-67
2022/04/15 08:53:41;;;;;;;2.75;1.83;;;;;;;;;;4509537;28;20147;-62
2022/04/15 08:55:51;;;;;;;2.58;1.70;;;;;;;;;;4492530;28;20084;-63
2022/04/15 08:58:02;;;;;;;3.50;2.10;;;;;;;;;;4512243;28;20586;-62
2022/04/15 09:00:13;;;;;;;3.13;1.93;;;;;;;;;;4496042;28;20030;-64
2022/04/15 09:02:31;;;;;;;2.55;1.63;;;;;;;;;;4512338;28;20068;-61
2022/04/15 09:04:41;;;;;;;2.78;1.50;;;;;;;;;;4512614;28;20034;-62
2022/04/15 09:06:56;;;;;;;2.07;1.57;;;;;;;;;;4512924;28;20065;-62
2022/04/15 09:09:11;;;;;;;2.67;1.80;;;;;;;;;;4513724;28;20037;-62
2022/04/15 09:11:21;;;;;;;3.08;1.90;;;;;;;;;;4511677;28;20034;-62
2022/04/15 09:13:34;;;;;;;2.20;1.60;;;;;;;;;;4510669;28;20487;-63
2022/04/15 09:15:44;;;;;;;1.60;1.50;;;;;;;;;;4511746;28;20038;-63
2022/04/15 09:17:55;;;;;;;1.27;1.10;;;;;;;;;;4510504;28;20487;-61
2022/04/15 09:20:06;;;;;;;1.42;1.10;;;;;;;;;;4511892;28;20047;-69
2022/04/15 09:22:17;;;;;;;2.65;1.10;;;;;;;;;;4513136;28;20037;-68
2022/04/15 09:24:33;;;;;;;1.88;1.20;;;;;;;;;;4495094;28;20973;-63
2022/04/15 09:26:46;;;;;;;2.25;1.10;;;;;;;;;;4511108;28;20732;-62
2022/04/15 09:28:56;;;;;;;2.00;1.25;;;;;;;;;;4509968;28;20033;-64
2022/04/15 09:31:13;;;;;;;1.63;1.07;;;;;;;;;;4511159;28;20033;-60
2022/04/15 09:33:23;;;;;;;1.40;1.13;;;;;;;;;;4511909;28;20034;-61
2022/04/15 09:35:34;;;;;;;1.60;1.40;;;;;;;;;;4509843;28;20022;-60
2022/04/15 09:37:44;;;;;;;1.57;1.20;;;;;;;;;;4510586;28;20045;-59
2022/04/15 09:40:18;;;;;;;2.20;1.30;;;;;;;;;;4498650;28;26236;-58
2022/04/15 09:42:29;;;;;;;2.15;1.25;;;;;;;;;;4511824;28;20036;-59
2022/04/15 09:44:42;;;;;;;1.30;1.20;;;;;;;;;;4510985;28;21594;-58
2022/04/15 09:46:52;;;;;;;1.92;1.33;;;;;;;;;;4511218;28;20041;-61
2022/04/15 09:49:08;;;;;;;2.00;1.43;;;;;;;;;;4493831;28;20050;-59
2022/04/15 09:51:19;;;;;;;1.77;1.50;;;;;;;;;;4492798;28;20065;-60
2022/04/15 09:53:32;;;;;;;2.53;1.60;;;;;;;;;;4481929;28;20088;-60
2022/04/15 09:55:46;;;;;;;2.97;2.20;;;;;;;;;;4510560;28;20034;-61
2022/04/15 09:57:58;;;;;;;2.30;1.40;;;;;;;;;;4495486;28;20102;-61
2022/04/15 10:00:11;;;;;;;2.40;1.40;;;;;;;;;;4500159;28;35533;-59
2022/04/15 10:02:22;;;;;;;4.10;1.80;;;;;;;;;;4492486;28;20022;-60
2022/04/15 10:04:33;;;;;;;4.35;2.13;;;;;;;;;;4492306;28;20589;-60
2022/04/15 10:06:44;;;;;;;2.23;1.40;;;;;;;;;;4495097;28;20430;-60
2022/04/15 10:08:56;;;;;;;3.45;1.73;;;;;;;;;;4511758;28;20757;-60
2022/04/15 10:11:09;;;;;;;1.55;1.42;;;;;;;;;;4511369;28;20084;-59
2022/04/15 10:13:20;;;;;;;1.30;1.20;;;;;;;;;;4492600;28;20041;-61
2022/04/15 10:15:32;;;;;;;1.98;1.40;;;;;;;;;;4510185;28;20066;-61
2022/04/15 10:17:43;;;;;;;1.63;1.25;;;;;;;;;;4510638;28;20046;-61
2022/04/15 10:19:54;;;;;;;1.40;1.30;;;;;;;;;;4492191;28;20125;-61
2022/04/15 10:22:05;;;;;;;1.73;1.40;;;;;;;;;;4490416;28;21169;-61
2022/04/15 10:24:17;;;;;;;1.67;1.25;;;;;;;;;;4473800;28;20488;-60
2022/04/15 10:26:33;;;;;;;1.35;1.10;;;;;;;;;;4449699;28;20050;-61
2022/04/15 10:28:46;;;;;;;2.05;1.20;;;;;;;;;;4473669;28;20073;-60
2022/04/15 10:31:11;;;;;;;1.50;1.17;;;;;;;;;;4457281;28;20030;-64
2022/04/15 10:33:29;;;;;;;2.00;1.30;;;;;;;;;;4492177;28;20045;-63
2022/04/15 10:35:41;;;;;;;1.95;1.23;;;;;;;;;;4486093;28;20034;-64
2022/04/15 10:37:58;;;;;;;1.40;1.30;;;;;;;;;;4445651;28;20129;-62
2022/04/15 10:40:30;;;;;;;1.75;1.30;;;;;;;;;;4472147;28;20046;-63
2022/04/15 10:42:43;;;;;;;2.17;1.40;;;;;;;;;;4479454;28;20092;-63
2022/04/15 10:44:59;;;;;;;1.35;1.25;;;;;;;;;;4469940;28;36023;-63
2022/04/15 10:47:14;;;;;;;1.70;1.30;;;;;;;;;;4492180;28;20092;-63
2022/04/15 10:49:27;;;;;;;1.30;1.20;;;;;;;;;;4491524;28;20029;-63
2022/04/15 10:51:37;;;;;;;1.80;1.30;;;;;;;;;;4462327;28;20030;-63
2022/04/15 10:53:47;;;;;;;2.40;1.20;;;;;;;;;;4490824;28;20039;-63
2022/04/15 10:56:07;;;;;;;1.63;1.30;;;;;;;;;;4490785;28;20650;-63
2022/04/15 10:58:17;;;;;;;4.07;2.15;;;;;;;;;;4489505;28;21257;-63
2022/04/15 11:02:57;;;;;;;2.22;1.30;;;;;;;;;;4476989;28;20041;-63
2022/04/15 11:05:30;;;;;;;1.40;1.03;;;;;;;;;;4473704;28;20166;-62
2022/04/15 11:07:48;;;;;;;2.20;1.15;;;;;;;;;;4493299;28;20042;-63
2022/04/15 11:09:59;;;;;;;1.63;1.30;;;;;;;;;;4458314;28;20050;-63
2022/04/15 11:12:11;;;;;;;2.30;1.40;;;;;;;;;;4467382;28;20038;-62
2022/04/15 11:14:31;;;;;;;;;;;;;;;;;;4466807;28;20022;-63
2022/04/15 11:16:44;;;;;;;1.80;1.40;;;;;;;;;;4467607;28;20474;-62
2022/04/15 11:18:59;;;;;;;1.67;1.10;;;;;;;;;;4476542;28;20093;-62
2022/04/15 11:21:20;;;;;;;2.30;1.33;;;;;;;;;;4486292;28;20058;-63
2022/04/15 11:23:30;;;;;;;2.28;1.30;;;;;;;;;;4466534;28;20661;-63
2022/04/15 11:25:42;;;;;;;2.03;1.40;;;;;;;;;;4485894;28;20409;-62
2022/04/15 11:27:52;;;;;;;;;;;;;;;;;;4487997;28;20089;-62
2022/04/15 11:30:05;;;;;;;2.72;1.30;;;;;;;;;;4486532;28;19984;-63
2022/04/15 11:32:15;;;;;;;1.92;1.50;;;;;;;;;;4456061;28;20097;-62
2022/04/15 11:34:46;;;;;;;1.93;1.43;;;;;;;;;;4486030;28;20038;-63
2022/04/15 11:37:01;;;;;;;2.40;1.40;;;;;;;;;;4435347;28;20036;-63
2022/04/15 11:39:16;;;;;;;1.40;1.10;;;;;;;;;;4435234;28;20597;-64
2022/04/15 11:41:27;;;;;;;1.95;1.30;;;;;;;;;;4433773;28;20047;-63
2022/04/15 11:43:37;;;;;;;2.97;1.53;;;;;;;;;;4433761;28;20036;-63
2022/04/15 11:45:47;;;;;;;1.17;1.00;;;;;;;;;;4435364;28;20495;-64
2022/04/15 11:48:17;;;;;;;1.60;1.30;;;;;;;;;;4435214;28;20134;-63
2022/04/15 11:50:27;;;;;;;1.30;1.20;;;;;;;;;;4431904;28;20032;-63
2022/04/15 11:52:38;;;;;;;2.10;1.20;;;;;;;;;;4433966;28;20503;-63
2022/04/15 11:54:48;;;;;;;1.97;1.30;;;;;;;;;;4418406;28;20044;-63
2022/04/15 11:57:03;;;;;;;1.80;1.37;;;;;;;;;;4435326;28;20086;-64
2022/04/15 11:59:13;;;;;;;2.28;1.40;;;;;;;;;;4419314;28;20611;-63
2022/04/15 12:01:28;;;;;;;1.83;1.27;;;;;;;;;;4436028;28;20043;-64
2022/04/15 12:03:41;;;;;;;1.95;1.33;;;;;;;;;;4435799;28;21028;-65
2022/04/15 12:05:54;;;;;;;1.55;1.30;;;;;;;;;;4435948;28;20034;-64
2022/04/15 12:08:06;;;;;;;1.58;1.30;;;;;;;;;;4417766;28;20043;-64
2022/04/15 12:10:16;;;;;;;1.75;1.42;;;;;;;;;;4438146;28;20744;-64
2022/04/15 12:12:27;;;;;;;2.00;1.30;;;;;;;;;;4438536;28;20417;-64
2022/04/15 12:14:39;;;;;;;1.50;1.27;;;;;;;;;;4474636;28;20043;-64
2022/04/15 12:16:50;;;;;;;1.50;1.10;;;;;;;;;;4470688;28;20550;-64
2022/04/15 12:19:02;;;;;;;1.40;1.10;;;;;;;;;;4470427;28;20901;-64
2022/04/15 12:21:12;;;;;;;1.70;1.13;;;;;;;;;;4486390;28;20034;-64
2022/04/15 12:23:25;;;;;;;1.37;1.10;;;;;;;;;;4488386;28;20415;-64
2022/04/15 12:29:47;;;;;;;1.83;1.13;;;;;;;;;;4489110;28;20133;-64
2022/04/15 12:30:43;;;;;;;1.42;1.08;;;;;;;;;;4488904;28;20034;-64
2022/04/15 12:33:07;;;;;;;2.22;1.20;;;;;;;;;;4488649;28;20022;-64
2022/04/15 12:35:18;;;;;;;2.22;1.23;;;;;;;;;;4490643;28;21320;-64
2022/04/15 12:37:47;;;;;;;1.48;0.95;;;;;;;;;;4489608;28;20065;-64
2022/04/15 12:39:57;;;;;;;1.48;1.00;;;;;;;;;;4488779;28;20045;-64
2022/04/15 12:42:26;;;;;;;2.40;1.30;;;;;;;;;;4489505;28;20395;-64
2022/04/15 12:44:37;;;;;;;2.75;1.40;;;;;;;;;;4490016;28;20529;-64
2022/04/15 12:46:55;;;;;;;1.38;1.10;;;;;;;;;;4478912;28;20038;-64
2022/04/15 12:49:20;;;;;;;1.88;1.02;;;;;;;;;;4454137;28;20057;-64
2022/04/15 12:51:38;;;;;;;1.45;1.30;;;;;;;;;;4488538;28;20832;-64
2022/04/15 12:53:48;;;;;;;2.22;1.30;;;;;;;;;;4472260;28;20026;-64
2022/04/15 12:56:08;;;;;;;1.47;1.17;;;;;;;;;;4488869;28;20030;-64
2022/04/15 12:58:21;;;;;;;1.85;1.33;;;;;;;;;;4488168;28;20578;-64
2022/04/15 13:00:32;;;;;;;2.75;1.30;;;;;;;;;;4473877;28;20084;-64
2022/04/15 13:02:43;;;;;;;2.67;1.23;;;;;;;;;;4488452;28;20475;-64
2022/04/15 13:04:54;;;;;;;1.93;1.40;;;;;;;;;;4479787;28;20026;-64
2022/04/15 13:07:04;;;;;;;1.23;1.00;;;;;;;;;;4489618;28;20081;-64
2022/04/15 13:09:20;;;;;;;1.70;1.20;;;;;;;;;;4490414;28;29654;-64
2022/04/15 13:11:30;;;;;;;1.65;1.20;;;;;;;;;;4488835;28;20070;-64
2022/04/15 13:13:41;;;;;;;1.33;1.00;;;;;;;;;;4490170;28;20641;-64
2022/04/15 13:15:51;;;;;;;1.13;1.07;;;;;;;;;;4488903;28;20121;-64